sensor_id;sensor_type;location;lat;lon;timestamp;P1;durP1;ratioP1;P2;durP2;ratioP2
11807;SDS011;5961;42.640;23.380;2022-09-29T00:00:47;4.27;;;2.37;;
11807;SDS011;5961;42.640;23.380;2022-09-29T00:03:14;4.77;;;2.83;;
11807;SDS011;5961;42.640;23.380;2022-09-29T00:05:45;6.23;;;3.47;;
11807;SDS011;5961;42.640;23.380;2022-09-29T00:08:12;5.43;;;2.70;;
11807;SDS011;5961;42.640;23.380;2022-09-29T00:10:40;4.87;;;2.70;;
11807;SDS011;5961;42.640;23.380;2022-09-29T00:13:07;7.33;;;3.03;;
11807;SDS011;5961;42.640;23.380;2022-09-29T00:15:34;6.07;;;2.67;;
11807;SDS011;5961;42.640;23.380;2022-09-29T00:18:00;6.47;;;3.10;;
11807;SDS011;5961;42.640;23.380;2022-09-29T00:20:27;5.17;;;3.23;;
11807;SDS011;5961;42.640;23.380;2022-09-29T00:22:54;7.07;;;3.30;;
11807;SDS011;5961;42.640;23.380;2022-09-29T00:25:20;6.33;;;2.90;;
11807;SDS011;5961;42.640;23.380;2022-09-29T00:27:48;7.07;;;3.03;;
11807;SDS011;5961;42.640;23.380;2022-09-29T00:30:15;7.23;;;3.10;;
11807;SDS011;5961;42.640;23.380;2022-09-29T00:32:42;7.37;;;2.97;;
11807;SDS011;5961;42.640;23.380;2022-09-29T00:35:09;5.13;;;3.30;;
11807;SDS011;5961;42.640;23.380;2022-09-29T00:37:36;5.10;;;2.67;;
11807;SDS011;5961;42.640;23.380;2022-09-29T00:40:03;6.03;;;3.13;;
11807;SDS011;5961;42.640;23.380;2022-09-29T00:42:31;6.63;;;3.10;;
11807;SDS011;5961;42.640;23.380;2022-09-29T00:45:04;4.47;;;3.27;;
11807;SDS011;5961;42.640;23.380;2022-09-29T00:47:42;3.93;;;2.90;;
11807;SDS011;5961;42.640;23.380;2022-09-29T00:50:13;5.80;;;3.20;;
11807;SDS011;5961;42.640;23.380;2022-09-29T00:52:45;5.87;;;2.93;;
11807;SDS011;5961;42.640;23.380;2022-09-29T00:55:17;5.47;;;2.87;;
11807;SDS011;5961;42.640;23.380;2022-09-29T00:57:51;7.97;;;2.87;;
11807;SDS011;5961;42.640;23.380;2022-09-29T01:00:23;6.47;;;3.07;;
11807;SDS011;5961;42.640;23.380;2022-09-29T01:02:52;5.17;;;3.20;;
11807;SDS011;5961;42.640;23.380;2022-09-29T01:05:23;4.50;;;2.70;;
11807;SDS011;5961;42.640;23.380;2022-09-29T01:07:53;6.70;;;2.60;;
11807;SDS011;5961;42.640;23.380;2022-09-29T01:10:21;4.20;;;3.00;;
11807;SDS011;5961;42.640;23.380;2022-09-29T01:12:48;5.53;;;3.10;;
11807;SDS011;5961;42.640;23.380;2022-09-29T01:15:17;3.47;;;2.70;;
11807;SDS011;5961;42.640;23.380;2022-09-29T01:17:47;3.73;;;2.50;;
11807;SDS011;5961;42.640;23.380;2022-09-29T01:20:15;5.40;;;2.60;;
11807;SDS011;5961;42.640;23.380;2022-09-29T01:23:02;5.03;;;2.73;;
11807;SDS011;5961;42.640;23.380;2022-09-29T01:25:58;4.70;;;2.77;;
11807;SDS011;5961;42.640;23.380;2022-09-29T01:28:56;3.93;;;2.60;;
11807;SDS011;5961;42.640;23.380;2022-09-29T01:31:49;5.97;;;2.57;;
11807;SDS011;5961;42.640;23.380;2022-09-29T01:34:23;6.37;;;2.73;;
11807;SDS011;5961;42.640;23.380;2022-09-29T01:37:02;3.50;;;2.70;;
11807;SDS011;5961;42.640;23.380;2022-09-29T01:39:37;7.43;;;2.73;;
11807;SDS011;5961;42.640;23.380;2022-09-29T01:42:09;3.33;;;2.67;;
11807;SDS011;5961;42.640;23.380;2022-09-29T01:44:41;4.53;;;2.73;;
11807;SDS011;5961;42.640;23.380;2022-09-29T01:47:15;7.17;;;2.50;;
11807;SDS011;5961;42.640;23.380;2022-09-29T01:49:50;3.63;;;2.87;;
11807;SDS011;5961;42.640;23.380;2022-09-29T01:52:23;4.27;;;2.80;;
11807;SDS011;5961;42.640;23.380;2022-09-29T01:54:56;4.97;;;2.50;;
11807;SDS011;5961;42.640;23.380;2022-09-29T01:57:27;11.70;;;3.43;;
11807;SDS011;5961;42.640;23.380;2022-09-29T01:59:56;4.27;;;2.90;;
11807;SDS011;5961;42.640;23.380;2022-09-29T02:02:33;3.57;;;2.67;;
11807;SDS011;5961;42.640;23.380;2022-09-29T02:05:07;4.07;;;2.50;;
11807;SDS011;5961;42.640;23.380;2022-09-29T02:07:38;6.97;;;3.07;;
11807;SDS011;5961;42.640;23.380;2022-09-29T02:10:09;4.00;;;2.70;;
11807;SDS011;5961;42.640;23.380;2022-09-29T02:12:41;4.13;;;2.70;;
11807;SDS011;5961;42.640;23.380;2022-09-29T02:15:11;4.43;;;2.63;;
11807;SDS011;5961;42.640;23.380;2022-09-29T02:17:42;5.30;;;2.90;;
11807;SDS011;5961;42.640;23.380;2022-09-29T02:20:13;4.47;;;2.80;;
11807;SDS011;5961;42.640;23.380;2022-09-29T02:22:40;3.33;;;2.63;;
11807;SDS011;5961;42.640;23.380;2022-09-29T02:25:08;4.80;;;3.00;;
11807;SDS011;5961;42.640;23.380;2022-09-29T02:27:38;4.83;;;3.20;;
11807;SDS011;5961;42.640;23.380;2022-09-29T02:30:06;5.50;;;2.87;;
11807;SDS011;5961;42.640;23.380;2022-09-29T02:32:34;8.10;;;3.10;;
11807;SDS011;5961;42.640;23.380;2022-09-29T02:35:03;4.93;;;2.70;;
11807;SDS011;5961;42.640;23.380;2022-09-29T02:37:39;4.57;;;3.10;;
11807;SDS011;5961;42.640;23.380;2022-09-29T02:40:16;6.50;;;3.00;;
11807;SDS011;5961;42.640;23.380;2022-09-29T02:43:01;4.23;;;2.70;;
11807;SDS011;5961;42.640;23.380;2022-09-29T02:45:41;4.80;;;2.73;;
11807;SDS011;5961;42.640;23.380;2022-09-29T02:48:27;5.40;;;2.70;;
11807;SDS011;5961;42.640;23.380;2022-09-29T02:51:14;3.93;;;3.10;;
11807;SDS011;5961;42.640;23.380;2022-09-29T02:53:51;5.77;;;3.00;;
11807;SDS011;5961;42.640;23.380;2022-09-29T02:56:31;4.80;;;2.93;;
11807;SDS011;5961;42.640;23.380;2022-09-29T02:59:07;6.40;;;2.87;;
11807;SDS011;5961;42.640;23.380;2022-09-29T03:01:46;6.03;;;3.07;;
11807;SDS011;5961;42.640;23.380;2022-09-29T03:04:15;4.87;;;2.97;;
11807;SDS011;5961;42.640;23.380;2022-09-29T03:06:43;6.37;;;3.27;;
11807;SDS011;5961;42.640;23.380;2022-09-29T03:09:10;6.27;;;2.80;;
11807;SDS011;5961;42.640;23.380;2022-09-29T03:11:36;6.43;;;3.03;;
11807;SDS011;5961;42.640;23.380;2022-09-29T03:14:03;4.10;;;2.90;;
11807;SDS011;5961;42.640;23.380;2022-09-29T03:16:31;3.83;;;3.40;;
11807;SDS011;5961;42.640;23.380;2022-09-29T03:18:57;4.23;;;3.00;;
11807;SDS011;5961;42.640;23.380;2022-09-29T03:21:24;5.27;;;3.23;;
11807;SDS011;5961;42.640;23.380;2022-09-29T03:23:52;5.93;;;3.00;;
11807;SDS011;5961;42.640;23.380;2022-09-29T03:26:19;6.13;;;2.80;;
11807;SDS011;5961;42.640;23.380;2022-09-29T03:28:47;7.57;;;3.03;;
11807;SDS011;5961;42.640;23.380;2022-09-29T03:31:14;5.80;;;2.93;;
11807;SDS011;5961;42.640;23.380;2022-09-29T03:33:41;5.57;;;3.00;;
11807;SDS011;5961;42.640;23.380;2022-09-29T03:36:08;5.93;;;3.00;;
11807;SDS011;5961;42.640;23.380;2022-09-29T03:38:35;5.73;;;2.93;;
11807;SDS011;5961;42.640;23.380;2022-09-29T03:41:04;9.77;;;2.90;;
11807;SDS011;5961;42.640;23.380;2022-09-29T03:43:31;6.27;;;2.90;;
11807;SDS011;5961;42.640;23.380;2022-09-29T03:45:58;4.60;;;2.80;;
11807;SDS011;5961;42.640;23.380;2022-09-29T03:48:25;9.90;;;3.17;;
11807;SDS011;5961;42.640;23.380;2022-09-29T03:50:55;4.83;;;3.10;;
11807;SDS011;5961;42.640;23.380;2022-09-29T03:53:22;7.30;;;2.60;;
11807;SDS011;5961;42.640;23.380;2022-09-29T03:55:49;5.47;;;3.20;;
11807;SDS011;5961;42.640;23.380;2022-09-29T03:58:17;3.63;;;2.77;;
11807;SDS011;5961;42.640;23.380;2022-09-29T04:00:46;6.57;;;3.17;;
11807;SDS011;5961;42.640;23.380;2022-09-29T04:03:13;5.50;;;3.33;;
11807;SDS011;5961;42.640;23.380;2022-09-29T04:05:39;6.37;;;3.83;;
11807;SDS011;5961;42.640;23.380;2022-09-29T04:08:06;9.47;;;4.87;;
11807;SDS011;5961;42.640;23.380;2022-09-29T04:10:33;6.17;;;3.97;;
11807;SDS011;5961;42.640;23.380;2022-09-29T04:13:00;9.53;;;4.63;;
11807;SDS011;5961;42.640;23.380;2022-09-29T04:15:29;7.73;;;4.20;;
11807;SDS011;5961;42.640;23.380;2022-09-29T04:17:55;8.73;;;4.20;;
11807;SDS011;5961;42.640;23.380;2022-09-29T04:20:22;8.53;;;4.70;;
11807;SDS011;5961;42.640;23.380;2022-09-29T04:22:49;7.83;;;4.40;;
11807;SDS011;5961;42.640;23.380;2022-09-29T04:25:16;8.70;;;4.80;;
11807;SDS011;5961;42.640;23.380;2022-09-29T04:27:43;8.70;;;4.20;;
11807;SDS011;5961;42.640;23.380;2022-09-29T04:30:10;8.40;;;4.30;;
11807;SDS011;5961;42.640;23.380;2022-09-29T04:32:39;6.30;;;4.03;;
11807;SDS011;5961;42.640;23.380;2022-09-29T04:35:06;7.77;;;4.07;;
11807;SDS011;5961;42.640;23.380;2022-09-29T04:37:33;16.13;;;5.60;;
11807;SDS011;5961;42.640;23.380;2022-09-29T04:40:00;11.60;;;4.87;;
11807;SDS011;5961;42.640;23.380;2022-09-29T04:42:28;14.80;;;5.00;;
11807;SDS011;5961;42.640;23.380;2022-09-29T04:44:55;8.83;;;4.30;;
11807;SDS011;5961;42.640;23.380;2022-09-29T04:47:22;13.03;;;4.60;;
11807;SDS011;5961;42.640;23.380;2022-09-29T04:49:50;15.87;;;6.43;;
11807;SDS011;5961;42.640;23.380;2022-09-29T04:52:16;9.97;;;5.50;;
11807;SDS011;5961;42.640;23.380;2022-09-29T04:54:43;13.77;;;5.10;;
11807;SDS011;5961;42.640;23.380;2022-09-29T04:57:10;8.80;;;4.53;;
11807;SDS011;5961;42.640;23.380;2022-09-29T04:59:36;15.03;;;5.13;;
11807;SDS011;5961;42.640;23.380;2022-09-29T05:02:03;14.37;;;6.13;;
11807;SDS011;5961;42.640;23.380;2022-09-29T05:04:30;10.77;;;5.70;;
11807;SDS011;5961;42.640;23.380;2022-09-29T05:06:58;16.63;;;6.10;;
11807;SDS011;5961;42.640;23.380;2022-09-29T05:09:25;14.63;;;5.77;;
11807;SDS011;5961;42.640;23.380;2022-09-29T05:11:51;10.20;;;5.03;;
11807;SDS011;5961;42.640;23.380;2022-09-29T05:14:18;8.80;;;5.03;;
11807;SDS011;5961;42.640;23.380;2022-09-29T05:16:45;16.83;;;4.87;;
11807;SDS011;5961;42.640;23.380;2022-09-29T05:19:11;15.47;;;6.30;;
11807;SDS011;5961;42.640;23.380;2022-09-29T05:21:38;11.80;;;4.37;;
11807;SDS011;5961;42.640;23.380;2022-09-29T05:24:06;10.60;;;4.13;;
11807;SDS011;5961;42.640;23.380;2022-09-29T05:26:33;10.80;;;4.53;;
11807;SDS011;5961;42.640;23.380;2022-09-29T05:29:00;14.30;;;4.63;;
11807;SDS011;5961;42.640;23.380;2022-09-29T05:31:27;17.20;;;5.50;;
11807;SDS011;5961;42.640;23.380;2022-09-29T05:33:53;11.90;;;5.50;;
11807;SDS011;5961;42.640;23.380;2022-09-29T05:36:21;18.73;;;5.50;;
11807;SDS011;5961;42.640;23.380;2022-09-29T05:38:49;9.70;;;4.47;;
11807;SDS011;5961;42.640;23.380;2022-09-29T05:41:17;9.70;;;3.97;;
11807;SDS011;5961;42.640;23.380;2022-09-29T05:43:46;12.37;;;4.23;;
11807;SDS011;5961;42.640;23.380;2022-09-29T05:46:14;15.60;;;4.33;;
11807;SDS011;5961;42.640;23.380;2022-09-29T05:48:42;7.27;;;3.67;;
11807;SDS011;5961;42.640;23.380;2022-09-29T05:51:09;7.27;;;3.27;;
11807;SDS011;5961;42.640;23.380;2022-09-29T05:53:37;9.47;;;3.73;;
11807;SDS011;5961;42.640;23.380;2022-09-29T05:56:05;9.43;;;3.80;;
11807;SDS011;5961;42.640;23.380;2022-09-29T05:58:34;10.30;;;3.80;;
11807;SDS011;5961;42.640;23.380;2022-09-29T06:01:04;5.93;;;3.20;;
11807;SDS011;5961;42.640;23.380;2022-09-29T06:03:31;8.07;;;3.17;;
11807;SDS011;5961;42.640;23.380;2022-09-29T06:06:03;4.80;;;3.47;;
11807;SDS011;5961;42.640;23.380;2022-09-29T06:08:31;14.40;;;3.60;;
11807;SDS011;5961;42.640;23.380;2022-09-29T06:11:01;12.17;;;3.60;;
11807;SDS011;5961;42.640;23.380;2022-09-29T06:13:29;8.57;;;3.60;;
11807;SDS011;5961;42.640;23.380;2022-09-29T06:15:58;5.73;;;2.80;;
11807;SDS011;5961;42.640;23.380;2022-09-29T06:18:25;7.70;;;3.47;;
11807;SDS011;5961;42.640;23.380;2022-09-29T06:20:51;6.13;;;3.50;;
11807;SDS011;5961;42.640;23.380;2022-09-29T06:23:18;6.90;;;3.50;;
11807;SDS011;5961;42.640;23.380;2022-09-29T06:25:45;8.90;;;3.33;;
11807;SDS011;5961;42.640;23.380;2022-09-29T06:28:12;11.30;;;3.40;;
11807;SDS011;5961;42.640;23.380;2022-09-29T06:30:38;5.97;;;3.60;;
11807;SDS011;5961;42.640;23.380;2022-09-29T06:33:06;7.77;;;3.90;;
11807;SDS011;5961;42.640;23.380;2022-09-29T06:35:33;9.80;;;3.60;;
11807;SDS011;5961;42.640;23.380;2022-09-29T06:38:17;5.20;;;3.30;;
11807;SDS011;5961;42.640;23.380;2022-09-29T06:40:44;6.63;;;3.23;;
11807;SDS011;5961;42.640;23.380;2022-09-29T06:43:11;8.13;;;3.10;;
11807;SDS011;5961;42.640;23.380;2022-09-29T06:45:37;8.40;;;3.70;;
11807;SDS011;5961;42.640;23.380;2022-09-29T06:48:04;8.07;;;3.00;;
11807;SDS011;5961;42.640;23.380;2022-09-29T06:50:35;8.37;;;2.93;;
11807;SDS011;5961;42.640;23.380;2022-09-29T06:53:02;7.63;;;3.57;;
11807;SDS011;5961;42.640;23.380;2022-09-29T06:55:28;8.90;;;3.43;;
11807;SDS011;5961;42.640;23.380;2022-09-29T06:57:55;5.00;;;3.43;;
11807;SDS011;5961;42.640;23.380;2022-09-29T07:00:22;7.63;;;3.27;;
11807;SDS011;5961;42.640;23.380;2022-09-29T07:02:48;7.67;;;3.77;;
11807;SDS011;5961;42.640;23.380;2022-09-29T07:05:15;10.87;;;4.27;;
11807;SDS011;5961;42.640;23.380;2022-09-29T07:07:43;13.33;;;4.00;;
11807;SDS011;5961;42.640;23.380;2022-09-29T07:10:13;7.67;;;3.53;;
11807;SDS011;5961;42.640;23.380;2022-09-29T07:12:40;8.60;;;4.00;;
11807;SDS011;5961;42.640;23.380;2022-09-29T07:15:11;10.73;;;3.80;;
11807;SDS011;5961;42.640;23.380;2022-09-29T07:17:38;9.20;;;3.67;;
11807;SDS011;5961;42.640;23.380;2022-09-29T07:20:05;7.87;;;3.57;;
11807;SDS011;5961;42.640;23.380;2022-09-29T07:22:32;10.37;;;3.37;;
11807;SDS011;5961;42.640;23.380;2022-09-29T07:25:00;11.27;;;3.47;;
11807;SDS011;5961;42.640;23.380;2022-09-29T07:27:26;14.60;;;3.90;;
11807;SDS011;5961;42.640;23.380;2022-09-29T07:29:53;6.07;;;3.20;;
11807;SDS011;5961;42.640;23.380;2022-09-29T07:32:20;8.10;;;3.77;;
11807;SDS011;5961;42.640;23.380;2022-09-29T07:34:47;7.93;;;3.53;;
11807;SDS011;5961;42.640;23.380;2022-09-29T07:37:13;7.57;;;3.13;;
11807;SDS011;5961;42.640;23.380;2022-09-29T07:39:40;8.00;;;3.20;;
11807;SDS011;5961;42.640;23.380;2022-09-29T07:42:08;15.73;;;3.43;;
11807;SDS011;5961;42.640;23.380;2022-09-29T07:44:35;5.87;;;2.80;;
11807;SDS011;5961;42.640;23.380;2022-09-29T07:47:01;13.50;;;3.50;;
11807;SDS011;5961;42.640;23.380;2022-09-29T07:49:28;5.07;;;2.80;;
11807;SDS011;5961;42.640;23.380;2022-09-29T07:51:55;7.47;;;2.80;;
11807;SDS011;5961;42.640;23.380;2022-09-29T07:54:22;6.27;;;3.50;;
11807;SDS011;5961;42.640;23.380;2022-09-29T07:56:48;9.90;;;3.40;;
11807;SDS011;5961;42.640;23.380;2022-09-29T07:59:16;7.10;;;3.50;;
11807;SDS011;5961;42.640;23.380;2022-09-29T08:01:43;7.23;;;3.37;;
11807;SDS011;5961;42.640;23.380;2022-09-29T08:04:10;7.53;;;3.60;;
11807;SDS011;5961;42.640;23.380;2022-09-29T08:06:37;8.70;;;4.30;;
11807;SDS011;5961;42.640;23.380;2022-09-29T08:09:06;9.40;;;3.53;;
11807;SDS011;5961;42.640;23.380;2022-09-29T08:11:35;7.73;;;3.43;;
11807;SDS011;5961;42.640;23.380;2022-09-29T08:14:03;9.83;;;3.17;;
11807;SDS011;5961;42.640;23.380;2022-09-29T08:16:32;10.40;;;2.90;;
11807;SDS011;5961;42.640;23.380;2022-09-29T08:18:59;7.57;;;3.17;;
11807;SDS011;5961;42.640;23.380;2022-09-29T08:21:26;5.73;;;3.47;;
11807;SDS011;5961;42.640;23.380;2022-09-29T08:23:53;10.33;;;3.30;;
11807;SDS011;5961;42.640;23.380;2022-09-29T08:26:20;7.23;;;3.37;;
11807;SDS011;5961;42.640;23.380;2022-09-29T08:28:48;9.40;;;3.30;;
11807;SDS011;5961;42.640;23.380;2022-09-29T08:31:15;8.00;;;3.07;;
11807;SDS011;5961;42.640;23.380;2022-09-29T08:33:45;7.63;;;3.13;;
11807;SDS011;5961;42.640;23.380;2022-09-29T08:36:13;7.30;;;3.40;;
11807;SDS011;5961;42.640;23.380;2022-09-29T08:38:41;8.63;;;3.40;;
11807;SDS011;5961;42.640;23.380;2022-09-29T08:41:14;6.60;;;3.17;;
11807;SDS011;5961;42.640;23.380;2022-09-29T08:43:51;5.93;;;2.70;;
11807;SDS011;5961;42.640;23.380;2022-09-29T08:46:23;5.83;;;2.87;;
11807;SDS011;5961;42.640;23.380;2022-09-29T08:48:54;9.90;;;2.97;;
11807;SDS011;5961;42.640;23.380;2022-09-29T08:51:25;5.63;;;2.83;;
11807;SDS011;5961;42.640;23.380;2022-09-29T08:53:57;8.00;;;2.93;;
11807;SDS011;5961;42.640;23.380;2022-09-29T08:56:28;12.57;;;3.30;;
11807;SDS011;5961;42.640;23.380;2022-09-29T08:58:55;9.10;;;3.53;;
11807;SDS011;5961;42.640;23.380;2022-09-29T09:01:22;8.43;;;3.43;;
11807;SDS011;5961;42.640;23.380;2022-09-29T09:04:03;9.93;;;3.43;;
11807;SDS011;5961;42.640;23.380;2022-09-29T09:06:54;7.93;;;3.33;;
11807;SDS011;5961;42.640;23.380;2022-09-29T09:09:37;8.20;;;3.77;;
11807;SDS011;5961;42.640;23.380;2022-09-29T09:12:16;10.10;;;3.93;;
11807;SDS011;5961;42.640;23.380;2022-09-29T09:15:13;9.37;;;2.70;;
11807;SDS011;5961;42.640;23.380;2022-09-29T09:18:08;12.57;;;3.13;;
11807;SDS011;5961;42.640;23.380;2022-09-29T09:20:50;7.93;;;3.10;;
11807;SDS011;5961;42.640;23.380;2022-09-29T09:23:19;5.77;;;2.60;;
11807;SDS011;5961;42.640;23.380;2022-09-29T09:25:49;4.37;;;2.67;;
11807;SDS011;5961;42.640;23.380;2022-09-29T09:28:21;7.30;;;2.73;;
11807;SDS011;5961;42.640;23.380;2022-09-29T09:30:54;6.30;;;2.83;;
11807;SDS011;5961;42.640;23.380;2022-09-29T09:33:26;5.70;;;2.90;;
11807;SDS011;5961;42.640;23.380;2022-09-29T09:35:59;6.77;;;3.13;;
11807;SDS011;5961;42.640;23.380;2022-09-29T09:38:39;3.73;;;2.40;;
11807;SDS011;5961;42.640;23.380;2022-09-29T09:41:12;7.03;;;2.90;;
11807;SDS011;5961;42.640;23.380;2022-09-29T09:43:43;6.90;;;2.67;;
11807;SDS011;5961;42.640;23.380;2022-09-29T09:46:15;7.23;;;2.40;;
11807;SDS011;5961;42.640;23.380;2022-09-29T09:48:50;6.67;;;2.80;;
11807;SDS011;5961;42.640;23.380;2022-09-29T09:51:31;4.57;;;2.87;;
11807;SDS011;5961;42.640;23.380;2022-09-29T09:54:03;4.75;;;2.42;;
11807;SDS011;5961;42.640;23.380;2022-09-29T09:56:43;4.33;;;2.40;;
11807;SDS011;5961;42.640;23.380;2022-09-29T09:59:23;6.50;;;2.72;;
11807;SDS011;5961;42.640;23.380;2022-09-29T10:01:59;6.15;;;2.47;;
11807;SDS011;5961;42.640;23.380;2022-09-29T10:04:25;6.22;;;2.25;;
11807;SDS011;5961;42.640;23.380;2022-09-29T10:06:55;5.15;;;2.42;;
11807;SDS011;5961;42.640;23.380;2022-09-29T10:09:22;6.15;;;2.58;;
11807;SDS011;5961;42.640;23.380;2022-09-29T10:11:49;6.13;;;2.45;;
11807;SDS011;5961;42.640;23.380;2022-09-29T10:14:18;4.43;;;2.70;;
11807;SDS011;5961;42.640;23.380;2022-09-29T10:16:48;6.35;;;2.60;;
11807;SDS011;5961;42.640;23.380;2022-09-29T10:19:20;7.05;;;2.33;;
11807;SDS011;5961;42.640;23.380;2022-09-29T10:21:48;4.68;;;2.63;;
11807;SDS011;5961;42.640;23.380;2022-09-29T10:24:23;7.60;;;2.92;;
11807;SDS011;5961;42.640;23.380;2022-09-29T10:26:54;6.10;;;2.35;;
11807;SDS011;5961;42.640;23.380;2022-09-29T10:29:24;4.60;;;2.30;;
11807;SDS011;5961;42.640;23.380;2022-09-29T10:32:06;3.97;;;2.15;;
11807;SDS011;5961;42.640;23.380;2022-09-29T10:34:35;8.32;;;2.47;;
11807;SDS011;5961;42.640;23.380;2022-09-29T10:37:04;5.57;;;2.10;;
11807;SDS011;5961;42.640;23.380;2022-09-29T10:39:46;3.60;;;2.10;;
11807;SDS011;5961;42.640;23.380;2022-09-29T10:42:14;7.22;;;2.20;;
11807;SDS011;5961;42.640;23.380;2022-09-29T10:44:43;5.15;;;2.30;;
11807;SDS011;5961;42.640;23.380;2022-09-29T10:47:16;4.38;;;2.10;;
11807;SDS011;5961;42.640;23.380;2022-09-29T10:49:45;2.53;;;2.28;;
11807;SDS011;5961;42.640;23.380;2022-09-29T10:52:16;2.80;;;2.42;;
11807;SDS011;5961;42.640;23.380;2022-09-29T10:54:54;3.38;;;2.60;;
11807;SDS011;5961;42.640;23.380;2022-09-29T10:57:25;3.88;;;2.88;;
11807;SDS011;5961;42.640;23.380;2022-09-29T10:59:54;2.80;;;2.40;;
11807;SDS011;5961;42.640;23.380;2022-09-29T11:02:23;6.68;;;2.92;;
11807;SDS011;5961;42.640;23.380;2022-09-29T11:04:55;2.83;;;2.58;;
11807;SDS011;5961;42.640;23.380;2022-09-29T11:07:25;4.30;;;2.80;;
11807;SDS011;5961;42.640;23.380;2022-09-29T11:09:53;4.72;;;2.42;;
11807;SDS011;5961;42.640;23.380;2022-09-29T11:12:28;4.55;;;2.88;;
11807;SDS011;5961;42.640;23.380;2022-09-29T11:14:58;4.32;;;2.85;;
11807;SDS011;5961;42.640;23.380;2022-09-29T11:17:26;11.27;;;2.90;;
11807;SDS011;5961;42.640;23.380;2022-09-29T11:19:56;5.97;;;2.83;;
11807;SDS011;5961;42.640;23.380;2022-09-29T11:22:35;5.57;;;2.92;;
11807;SDS011;5961;42.640;23.380;2022-09-29T11:25:29;4.55;;;2.70;;
11807;SDS011;5961;42.640;23.380;2022-09-29T11:28:18;4.43;;;3.08;;
11807;SDS011;5961;42.640;23.380;2022-09-29T11:31:11;6.97;;;3.50;;
11807;SDS011;5961;42.640;23.380;2022-09-29T11:33:50;8.07;;;3.80;;
11807;SDS011;5961;42.640;23.380;2022-09-29T11:36:28;5.03;;;3.20;;
11807;SDS011;5961;42.640;23.380;2022-09-29T11:39:05;7.18;;;3.03;;
11807;SDS011;5961;42.640;23.380;2022-09-29T11:41:53;3.72;;;2.97;;
11807;SDS011;5961;42.640;23.380;2022-09-29T11:44:40;3.42;;;3.00;;
11807;SDS011;5961;42.640;23.380;2022-09-29T11:47:22;7.93;;;3.15;;
11807;SDS011;5961;42.640;23.380;2022-09-29T11:53:03;4.30;;;2.47;;
11807;SDS011;5961;42.640;23.380;2022-09-29T11:55:46;2.72;;;1.88;;
11807;SDS011;5961;42.640;23.380;2022-09-29T11:58:28;2.42;;;1.92;;
11807;SDS011;5961;42.640;23.380;2022-09-29T12:01:12;4.30;;;1.70;;
11807;SDS011;5961;42.640;23.380;2022-09-29T12:03:49;1.90;;;1.80;;
11807;SDS011;5961;42.640;23.380;2022-09-29T12:06:30;5.13;;;1.70;;
11807;SDS011;5961;42.640;23.380;2022-09-29T12:09:12;3.30;;;1.88;;
11807;SDS011;5961;42.640;23.380;2022-09-29T12:11:49;2.50;;;1.60;;
11807;SDS011;5961;42.640;23.380;2022-09-29T12:14:30;2.03;;;1.88;;
11807;SDS011;5961;42.640;23.380;2022-09-29T12:17:03;2.30;;;1.92;;
11807;SDS011;5961;42.640;23.380;2022-09-29T12:19:37;3.65;;;1.95;;
11807;SDS011;5961;42.640;23.380;2022-09-29T12:22:07;4.25;;;2.00;;
11807;SDS011;5961;42.640;23.380;2022-09-29T12:24:37;2.45;;;1.60;;
11807;SDS011;5961;42.640;23.380;2022-09-29T12:27:07;2.63;;;1.80;;
11807;SDS011;5961;42.640;23.380;2022-09-29T12:29:43;4.68;;;1.92;;
11807;SDS011;5961;42.640;23.380;2022-09-29T12:32:16;3.40;;;1.83;;
11807;SDS011;5961;42.640;23.380;2022-09-29T12:34:49;1.77;;;1.67;;
11807;SDS011;5961;42.640;23.380;2022-09-29T12:37:20;1.88;;;1.63;;
11807;SDS011;5961;42.640;23.380;2022-09-29T12:39:55;3.22;;;1.50;;
11807;SDS011;5961;42.640;23.380;2022-09-29T12:42:35;2.35;;;1.42;;
11807;SDS011;5961;42.640;23.380;2022-09-29T12:45:13;1.60;;;1.50;;
11807;SDS011;5961;42.640;23.380;2022-09-29T12:47:51;3.40;;;1.90;;
11807;SDS011;5961;42.640;23.380;2022-09-29T12:50:27;1.65;;;1.55;;
11807;SDS011;5961;42.640;23.380;2022-09-29T12:52:55;1.80;;;1.52;;
11807;SDS011;5961;42.640;23.380;2022-09-29T12:55:28;5.03;;;1.77;;
11807;SDS011;5961;42.640;23.380;2022-09-29T12:58:12;6.30;;;2.08;;
11807;SDS011;5961;42.640;23.380;2022-09-29T13:00:47;4.20;;;1.95;;
11807;SDS011;5961;42.640;23.380;2022-09-29T13:09:38;2.72;;;1.67;;
11807;SDS011;5961;42.640;23.380;2022-09-29T13:15:26;2.35;;;1.50;;
11807;SDS011;5961;42.640;23.380;2022-09-29T13:18:15;2.65;;;1.65;;
11807;SDS011;5961;42.640;23.380;2022-09-29T13:20:55;2.92;;;1.90;;
11807;SDS011;5961;42.640;23.380;2022-09-29T13:23:37;1.70;;;1.60;;
11807;SDS011;5961;42.640;23.380;2022-09-29T13:26:30;1.85;;;1.42;;
11807;SDS011;5961;42.640;23.380;2022-09-29T13:29:09;2.90;;;1.70;;
11807;SDS011;5961;42.640;23.380;2022-09-29T13:31:39;1.80;;;1.70;;
11807;SDS011;5961;42.640;23.380;2022-09-29T13:34:16;2.13;;;1.60;;
11807;SDS011;5961;42.640;23.380;2022-09-29T13:36:47;3.20;;;1.73;;
11807;SDS011;5961;42.640;23.380;2022-09-29T13:39:19;1.73;;;1.60;;
11807;SDS011;5961;42.640;23.380;2022-09-29T13:41:48;1.58;;;1.48;;
11807;SDS011;5961;42.640;23.380;2022-09-29T13:44:24;3.10;;;1.80;;
11807;SDS011;5961;42.640;23.380;2022-09-29T13:46:52;1.83;;;1.73;;
11807;SDS011;5961;42.640;23.380;2022-09-29T13:49:25;5.60;;;1.60;;
11807;SDS011;5961;42.640;23.380;2022-09-29T13:51:54;2.95;;;1.60;;
11807;SDS011;5961;42.640;23.380;2022-09-29T13:54:23;3.67;;;2.22;;
11807;SDS011;5961;42.640;23.380;2022-09-29T13:56:58;3.17;;;1.80;;
11807;SDS011;5961;42.640;23.380;2022-09-29T13:59:26;4.18;;;1.95;;
11807;SDS011;5961;42.640;23.380;2022-09-29T14:01:54;3.63;;;2.00;;
11807;SDS011;5961;42.640;23.380;2022-09-29T14:04:43;3.20;;;1.90;;
11807;SDS011;5961;42.640;23.380;2022-09-29T14:10:03;3.03;;;1.80;;
11807;SDS011;5961;42.640;23.380;2022-09-29T14:12:38;3.03;;;1.88;;
11807;SDS011;5961;42.640;23.380;2022-09-29T14:15:07;2.55;;;1.75;;
11807;SDS011;5961;42.640;23.380;2022-09-29T14:17:41;5.55;;;3.50;;
11807;SDS011;5961;42.640;23.380;2022-09-29T14:20:17;4.70;;;1.95;;
11807;SDS011;5961;42.640;23.380;2022-09-29T14:22:53;6.45;;;2.20;;
11807;SDS011;5961;42.640;23.380;2022-09-29T14:25:27;4.68;;;2.30;;
11807;SDS011;5961;42.640;23.380;2022-09-29T14:28:02;5.10;;;2.42;;
11807;SDS011;5961;42.640;23.380;2022-09-29T14:30:42;3.00;;;2.40;;
11807;SDS011;5961;42.640;23.380;2022-09-29T14:33:15;2.85;;;2.10;;
11807;SDS011;5961;42.640;23.380;2022-09-29T14:35:47;5.33;;;2.53;;
11807;SDS011;5961;42.640;23.380;2022-09-29T14:38:21;5.30;;;2.60;;
11807;SDS011;5961;42.640;23.380;2022-09-29T14:40:53;4.77;;;2.97;;
11807;SDS011;5961;42.640;23.380;2022-09-29T14:43:22;3.77;;;2.40;;
11807;SDS011;5961;42.640;23.380;2022-09-29T14:46:04;4.20;;;3.10;;
11807;SDS011;5961;42.640;23.380;2022-09-29T14:49:12;3.50;;;2.70;;
11807;SDS011;5961;42.640;23.380;2022-09-29T14:52:13;5.57;;;2.90;;
11807;SDS011;5961;42.640;23.380;2022-09-29T14:54:48;3.77;;;2.63;;
11807;SDS011;5961;42.640;23.380;2022-09-29T14:57:28;2.33;;;2.13;;
11807;SDS011;5961;42.640;23.380;2022-09-29T15:00:05;3.53;;;2.30;;
11807;SDS011;5961;42.640;23.380;2022-09-29T15:02:39;4.40;;;2.40;;
11807;SDS011;5961;42.640;23.380;2022-09-29T15:05:13;1.73;;;1.63;;
11807;SDS011;5961;42.640;23.380;2022-09-29T15:07:43;1.10;;;1.10;;
11807;SDS011;5961;42.640;23.380;2022-09-29T15:10:18;1.87;;;1.40;;
11807;SDS011;5961;42.640;23.380;2022-09-29T15:12:47;1.90;;;1.70;;
11807;SDS011;5961;42.640;23.380;2022-09-29T15:17:59;3.10;;;2.00;;
11807;SDS011;5961;42.640;23.380;2022-09-29T15:20:42;3.10;;;2.20;;
11807;SDS011;5961;42.640;23.380;2022-09-29T15:23:30;3.33;;;1.90;;
11807;SDS011;5961;42.640;23.380;2022-09-29T15:26:24;6.30;;;2.50;;
11807;SDS011;5961;42.640;23.380;2022-09-29T15:28:57;5.03;;;3.07;;
11807;SDS011;5961;42.640;23.380;2022-09-29T15:31:26;4.53;;;2.77;;